Time;durP1;ratioP1;P1;durP2;ratioP2;P2;SDS_P1;SDS_P2;PMS_P1;PMS_P2;Temp;Humidity;BMP_temperature;BMP_pressure;BME280_temperature;BME280_humidity;BME280_pressure;Samples;Min_cycle;Max_cycle;Signal;HPM_P1;HPM_P2
2021/07/17 00:00:40;;;;;;;44.85;32.23;;;;;;;20.85;76.34;97071.67;1779611;79;26271;-86
2021/07/17 00:03:09;;;;;;;44.50;31.62;;;;;;;20.89;76.36;97064.48;1750412;80;25227;-86
2021/07/17 00:05:36;;;;;;;39.90;31.23;;;;;;;20.92;76.39;97055.70;1759001;80;25837;-86
2021/07/17 00:08:04;;;;;;;42.85;31.65;;;;;;;20.97;76.37;97054.30;1781601;79;25779;-86
2021/07/17 00:10:42;;;;;;;43.48;31.65;;;;;;;21.01;76.34;97059.45;1764772;80;28258;-87
2021/07/17 00:13:09;;;;;;;41.98;32.23;;;;;;;20.96;76.28;97065.00;1770580;79;25679;-87
2021/07/17 00:15:36;;;;;;;40.78;31.02;;;;;;;20.93;76.37;97061.45;1750593;80;25288;-86
2021/07/17 00:18:04;;;;;;;38.63;29.18;;;;;;;20.93;76.40;97048.28;1777918;80;25762;-87
2021/07/17 00:20:31;;;;;;;42.25;30.48;;;;;;;20.94;76.42;97036.20;1781378;80;25852;-88
2021/07/17 00:22:57;;;;;;;46.55;31.93;;;;;;;20.92;76.43;97034.30;1774520;80;27502;-87
2021/07/17 00:25:25;;;;;;;47.08;32.45;;;;;;;20.92;76.47;97036.48;1781253;80;25661;-87
2021/07/17 00:27:52;;;;;;;43.13;32.10;;;;;;;20.92;76.57;97026.06;1769880;80;26218;-86
2021/07/17 00:30:19;;;;;;;47.85;31.40;;;;;;;20.83;76.55;97031.36;1750608;80;25827;-86
2021/07/17 00:32:47;;;;;;;39.00;27.62;;;;;;;20.77;76.75;97040.16;1781536;80;25724;-87
2021/07/17 00:35:14;;;;;;;32.33;25.32;;;;;;;20.69;76.78;97042.14;1781590;79;27534;-86
2021/07/17 00:37:41;;;;;;;36.25;24.82;;;;;;;20.62;76.68;97049.06;1768344;80;25794;-86
2021/07/17 00:40:10;;;;;;;31.62;23.07;;;;;;;20.56;76.58;97041.95;1781782;79;25828;-87
2021/07/17 00:42:42;;;;;;;31.70;22.93;;;;;;;20.53;76.56;97057.63;1781580;80;25748;-87
2021/07/17 00:45:10;;;;;;;35.08;25.05;;;;;;;20.46;76.51;97056.55;1773525;80;25686;-86
2021/07/17 00:47:38;;;;;;;34.70;23.38;;;;;;;20.42;76.57;97059.03;1753951;80;27439;-86
2021/07/17 00:50:11;;;;;;;33.35;25.02;;;;;;;20.45;76.57;97059.02;1755527;80;25259;-85
2021/07/17 00:52:39;;;;;;;30.08;25.20;;;;;;;20.46;76.59;97056.00;1784800;80;25799;-86
2021/07/17 00:55:08;;;;;;;37.70;25.45;;;;;;;20.48;76.65;97051.06;1782074;79;27017;-86
2021/07/17 00:57:36;;;;;;;36.80;25.35;;;;;;;20.53;76.66;97048.03;1784661;80;25745;-86
2021/07/17 01:00:15;;;;;;;33.38;23.38;;;;;;;20.56;76.61;97041.95;1784888;79;27530;-85
2021/07/17 01:02:50;;;;;;;29.67;24.23;;;;;;;20.59;76.50;97047.70;1773912;80;25766;-86
2021/07/17 01:05:17;;;;;;;29.92;23.85;;;;;;;20.58;76.36;97041.13;1754376;80;25781;-85
2021/07/17 01:07:46;;;;;;;27.50;23.42;;;;;;;20.57;76.32;97040.86;1771802;80;25734;-85
2021/07/17 01:10:15;;;;;;;32.30;22.93;;;;;;;20.52;76.15;97051.87;1762623;79;25805;-85
2021/07/17 01:12:41;;;;;;;34.83;23.42;;;;;;;20.47;76.14;97057.64;1769445;80;28485;-85
2021/07/17 01:15:09;;;;;;;30.65;23.67;;;;;;;20.40;76.06;97062.62;1775580;80;25702;-87
2021/07/17 01:17:36;;;;;;;29.35;24.27;;;;;;;20.37;76.20;97057.70;1753770;80;25702;-85
2021/07/17 01:20:07;;;;;;;34.25;23.73;;;;;;;20.36;76.22;97047.84;1775881;80;25818;-86
2021/07/17 01:22:33;;;;;;;34.50;24.67;;;;;;;20.31;76.17;97054.67;1753825;80;25836;-86
2021/07/17 01:25:00;;;;;;;35.65;24.02;;;;;;;20.27;76.23;97050.87;1775140;80;28299;-87
2021/07/17 01:27:27;;;;;;;28.42;24.40;;;;;;;20.28;76.26;97047.59;1762531;80;25670;-86
2021/07/17 01:29:53;;;;;;;31.73;24.77;;;;;;;20.23;76.22;97052.53;1767977;79;25822;-86
2021/07/17 01:32:20;;;;;;;35.20;24.55;;;;;;;20.22;76.35;97047.33;1773940;80;25764;-87
2021/07/17 01:34:47;;;;;;;28.10;22.45;;;;;;;20.25;76.48;97039.92;1763080;80;25718;-86
2021/07/17 01:37:14;;;;;;;29.57;23.05;;;;;;;20.20;76.43;97039.39;1754031;80;27577;-87
2021/07/17 01:39:40;;;;;;;33.13;23.77;;;;;;;20.18;76.54;97049.80;1753632;80;25794;-86
2021/07/17 01:42:09;;;;;;;38.10;25.48;;;;;;;20.21;76.59;97044.31;1754359;80;25745;-87
2021/07/17 01:44:45;;;;;;;40.43;28.17;;;;;;;20.25;76.59;97039.38;1754126;80;25713;-85
2021/07/17 01:47:14;;;;;;;40.65;26.95;;;;;;;20.28;76.55;97038.81;1760988;80;25762;-85
2021/07/17 01:49:42;;;;;;;38.58;26.97;;;;;;;20.23;76.56;97034.72;1753972;80;27468;-86
2021/07/17 01:52:09;;;;;;;44.23;29.02;;;;;;;20.18;76.68;97037.47;1763470;79;25287;-86
2021/07/17 01:54:38;;;;;;;44.10;28.45;;;;;;;20.21;76.90;97036.09;1779628;80;25829;-85
2021/07/17 01:57:07;;;;;;;53.78;31.68;;;;;;;20.24;77.03;97036.36;1765659;80;26641;-85
2021/07/17 01:59:40;;;;;;;44.05;29.25;;;;;;;20.26;77.03;97030.05;1783708;80;25779;-86
2021/07/17 02:02:08;;;;;;;50.20;30.88;;;;;;;20.24;77.03;97032.25;1768188;80;28461;-85
2021/07/17 02:04:36;;;;;;;47.90;30.12;;;;;;;20.22;77.10;97034.45;1780229;80;25799;-86
2021/07/17 02:07:07;;;;;;;53.92;30.72;;;;;;;20.24;77.17;97033.63;1764944;80;25661;-86
2021/07/17 02:09:34;;;;;;;49.77;30.77;;;;;;;20.28;77.18;97029.77;1783421;80;25753;-86
2021/07/17 02:12:05;;;;;;;58.95;33.65;;;;;;;20.31;77.15;97028.63;1775372;80;25852;-85
2021/07/17 02:14:39;;;;;;;55.75;33.78;;;;;;;20.33;77.16;97031.92;1754815;80;28193;-85
2021/07/17 02:17:07;;;;;;;63.13;35.05;;;;;;;20.36;77.15;97035.50;1784264;80;25701;-86
2021/07/17 02:19:34;;;;;;;56.80;34.90;;;;;;;20.39;77.19;97036.31;1767651;79;25442;-86
2021/07/17 02:22:01;;;;;;;56.68;34.70;;;;;;;20.35;77.23;97042.60;1773140;80;25737;-86
2021/07/17 02:24:28;;;;;;;62.27;35.30;;;;;;;20.31;77.33;97042.34;1763322;79;25682;-86
2021/07/17 02:26:54;;;;;;;61.35;36.08;;;;;;;20.32;77.42;97045.91;1784614;80;27493;-87
2021/07/17 02:29:21;;;;;;;60.28;33.85;;;;;;;20.32;77.48;97048.09;1762866;79;25979;-86
2021/07/17 02:31:48;;;;;;;56.88;35.13;;;;;;;20.32;77.46;97046.72;1784942;80;25735;-86
2021/07/17 02:34:15;;;;;;;58.35;34.43;;;;;;;20.36;77.45;97039.61;1775771;80;25712;-85
2021/07/17 02:36:42;;;;;;;59.83;34.85;;;;;;;20.36;77.42;97037.42;1773100;80;25290;-86
2021/07/17 02:39:10;;;;;;;60.60;33.60;;;;;;;20.29;77.45;97034.13;1778299;80;27387;-86
2021/07/17 02:41:38;;;;;;;58.92;32.70;;;;;;;20.28;77.54;97032.52;1754079;80;25936;-86
2021/07/17 02:44:05;;;;;;;51.92;32.42;;;;;;;20.31;77.61;97045.08;1773389;80;25747;-85
2021/07/17 02:46:31;;;;;;;53.87;33.25;;;;;;;20.34;77.53;97045.89;1761025;80;26532;-85
2021/07/17 02:48:58;;;;;;;56.45;33.55;;;;;;;20.36;77.64;97045.09;1781285;80;26002;-86
2021/07/17 02:51:25;;;;;;;54.77;32.78;;;;;;;20.39;77.60;97047.83;1759769;79;28162;-85
2021/07/17 02:53:51;;;;;;;48.50;32.48;;;;;;;20.35;77.55;97043.45;1759422;80;25288;-85
2021/07/17 02:56:18;;;;;;;57.40;34.95;;;;;;;20.30;77.59;97047.55;1771886;80;25638;-85
2021/07/17 02:58:44;;;;;;;52.88;32.88;;;;;;;20.31;77.78;97038.23;1751097;80;25915;-85
2021/07/17 03:01:11;;;;;;;53.70;34.38;;;;;;;20.32;77.81;97041.23;1780827;80;25212;-85
2021/07/17 03:03:38;;;;;;;59.30;34.05;;;;;;;20.26;77.74;97046.49;1769374;80;27940;-85
2021/07/17 03:06:04;;;;;;;52.08;32.65;;;;;;;20.27;77.85;97040.47;1764748;80;26045;-85
2021/07/17 03:08:31;;;;;;;49.40;31.73;;;;;;;20.31;77.88;97044.26;1759923;80;25805;-85
2021/07/17 03:10:58;;;;;;;49.95;32.65;;;;;;;20.29;77.87;97045.09;1781288;79;25885;-86
2021/07/17 03:13:24;;;;;;;51.60;33.92;;;;;;;20.28;77.97;97044.84;1774443;80;25692;-85
2021/07/17 03:15:51;;;;;;;49.33;32.98;;;;;;;20.30;78.05;97037.95;1769099;80;27392;-86
2021/07/17 03:18:18;;;;;;;48.98;31.68;;;;;;;20.33;78.00;97042.06;1781516;80;25842;-85
2021/07/17 03:20:46;;;;;;;44.85;31.25;;;;;;;20.34;78.07;97038.22;1781938;80;25884;-86
2021/07/17 03:23:13;;;;;;;39.50;28.65;;;;;;;20.36;78.08;97031.94;1781481;80;25750;-86
2021/07/17 03:25:40;;;;;;;35.03;26.35;;;;;;;20.34;77.94;97040.41;1764979;80;25804;-85
2021/07/17 03:28:06;;;;;;;43.80;27.52;;;;;;;20.34;77.88;97040.96;1777448;79;27216;-85
2021/07/17 03:30:33;;;;;;;43.65;27.00;;;;;;;20.33;77.93;97041.52;1781476;79;25715;-85
2021/07/17 03:33:00;;;;;;;40.20;27.58;;;;;;;20.34;77.87;97037.67;1781214;79;25690;-85
2021/07/17 03:35:26;;;;;;;32.08;25.72;;;;;;;20.35;77.92;97040.72;1781590;80;26655;-85
2021/07/17 03:37:53;;;;;;;36.17;27.35;;;;;;;20.34;77.88;97040.41;1763516;80;25694;-85
2021/07/17 03:40:19;;;;;;;36.70;27.10;;;;;;;20.36;77.91;97038.80;1750569;80;27595;-85
2021/07/17 03:42:46;;;;;;;32.10;25.32;;;;;;;20.37;77.97;97045.92;1769838;80;25741;-85
2021/07/17 03:45:13;;;;;;;35.70;26.00;;;;;;;20.34;77.95;97036.30;1760514;79;26410;-86
2021/07/17 03:47:39;;;;;;;38.38;26.42;;;;;;;20.37;77.97;97041.26;1753026;80;26436;-85
2021/07/17 03:50:07;;;;;;;34.43;25.88;;;;;;;20.38;77.95;97047.01;1777339;80;25713;-85
2021/07/17 03:52:34;;;;;;;32.85;25.12;;;;;;;20.37;77.96;97044.00;1773420;80;28308;-85
2021/07/17 03:55:00;;;;;;;28.85;24.50;;;;;;;20.39;77.98;97045.09;1774887;80;25638;-85
2021/07/17 03:57:27;;;;;;;32.88;24.77;;;;;;;20.40;77.98;97044.81;1754222;80;25713;-85
2021/07/17 03:59:53;;;;;;;36.08;25.23;;;;;;;20.41;77.96;97047.80;1772409;80;25764;-85
2021/07/17 04:02:20;;;;;;;34.20;25.25;;;;;;;20.44;77.96;97044.49;1783448;80;25851;-86
2021/07/17 04:04:48;;;;;;;35.50;25.68;;;;;;;20.47;77.93;97045.30;1763226;80;27566;-85
2021/07/17 04:07:16;;;;;;;36.50;25.25;;;;;;;20.48;77.87;97048.32;1784246;79;25774;-85
2021/07/17 04:09:42;;;;;;;32.88;25.35;;;;;;;20.51;77.95;97044.75;1757042;80;25835;-85
2021/07/17 04:12:09;;;;;;;33.25;25.75;;;;;;;20.46;77.93;97046.41;1783011;80;26613;-85
2021/07/17 04:14:37;;;;;;;34.73;24.65;;;;;;;20.52;77.96;97050.50;1758729;80;25750;-85
2021/07/17 04:17:04;;;;;;;31.77;24.20;;;;;;;20.57;77.95;97043.59;1767877;80;27480;-85
2021/07/17 04:19:30;;;;;;;37.08;25.97;;;;;;;20.59;77.89;97047.70;1785022;80;25725;-84
2021/07/17 04:21:57;;;;;;;33.08;25.00;;;;;;;20.63;77.98;97041.92;1785174;79;26573;-85
2021/07/17 04:24:23;;;;;;;32.58;25.10;;;;;;;20.68;78.07;97050.66;1781094;80;25698;-85
2021/07/17 04:26:50;;;;;;;30.52;24.80;;;;;;;20.67;78.04;97050.38;1763423;79;25874;-85
2021/07/17 04:29:16;;;;;;;33.40;25.90;;;;;;;20.65;78.02;97055.36;1754179;80;27431;-85
2021/07/17 04:31:43;;;;;;;30.25;25.10;;;;;;;20.66;78.12;97052.86;1759440;79;25820;-85
2021/07/17 04:34:09;;;;;;;38.45;26.97;;;;;;;20.68;78.10;97060.25;1785017;80;25816;-85
2021/07/17 04:36:36;;;;;;;34.18;27.27;;;;;;;20.71;78.05;97056.95;1772067;80;26223;-85
2021/07/17 04:39:03;;;;;;;37.75;27.45;;;;;;;20.75;78.08;97049.25;1761733;80;25661;-85
2021/07/17 04:41:30;;;;;;;35.78;26.57;;;;;;;20.83;77.95;97045.07;1765787;80;27537;-84
2021/07/17 04:43:56;;;;;;;37.67;25.60;;;;;;;20.87;77.91;97049.44;1763972;80;25906;-85
2021/07/17 04:46:23;;;;;;;33.85;25.77;;;;;;;20.82;77.74;97051.66;1773036;79;25726;-85
2021/07/17 04:48:49;;;;;;;34.03;27.13;;;;;;;20.85;77.89;97046.98;1777911;79;25875;-85
2021/07/17 04:51:16;;;;;;;36.80;28.07;;;;;;;20.86;77.98;97041.77;1754266;80;25732;-85
2021/07/17 04:53:42;;;;;;;35.30;28.25;;;;;;;20.87;78.12;97041.21;1759280;80;28403;-85
2021/07/17 04:56:09;;;;;;;33.78;27.30;;;;;;;20.91;78.06;97036.77;1770001;79;26196;-85
2021/07/17 04:58:36;;;;;;;40.17;29.50;;;;;;;20.98;78.00;97035.36;1775846;80;25689;-84
2021/07/17 05:01:02;;;;;;;39.13;30.48;;;;;;;21.02;77.96;97036.41;1755150;80;26335;-86
2021/07/17 05:03:29;;;;;;;46.55;33.15;;;;;;;21.06;77.91;97040.22;1789573;80;25199;-86
2021/07/17 05:05:55;;;;;;;42.55;32.30;;;;;;;21.08;77.84;97044.88;1793309;80;27293;-86
2021/07/17 05:08:22;;;;;;;43.20;30.88;;;;;;;21.10;77.78;97041.84;1792997;80;26354;-85
2021/07/17 05:10:49;;;;;;;42.75;33.02;;;;;;;21.12;77.81;97039.09;1775331;80;25682;-84
2021/07/17 05:13:16;;;;;;;48.70;33.50;;;;;;;21.14;77.80;97036.84;1762240;78;25765;-86
2021/07/17 05:15:43;;;;;;;43.40;32.38;;;;;;;21.16;77.87;97033.81;1761747;78;25725;-85
2021/07/17 05:18:15;;;;;;;51.23;33.33;;;;;;;21.23;77.95;97032.98;1769659;78;28152;-85
2021/07/17 05:20:41;;;;;;;48.28;33.23;;;;;;;21.30;77.91;97027.96;1742106;81;25837;-84
2021/07/17 05:23:09;;;;;;;45.90;33.67;;;;;;;21.36;77.86;97026.82;1784688;78;25690;-86
2021/07/17 05:25:36;;;;;;;47.27;34.38;;;;;;;21.43;77.79;97029.22;1792874;78;26532;-85
2021/07/17 05:28:03;;;;;;;51.73;34.88;;;;;;;21.45;77.67;97028.37;1736891;80;25521;-85
2021/07/17 05:30:32;;;;;;;46.98;34.05;;;;;;;21.47;77.80;97026.98;1761496;81;27422;-85
2021/07/17 05:32:59;;;;;;;47.60;35.08;;;;;;;21.54;77.79;97034.86;1792623;78;26113;-84
2021/07/17 05:35:28;;;;;;;45.75;34.03;;;;;;;21.59;77.73;97032.08;1769500;80;25836;-84
2021/07/17 05:37:56;;;;;;;46.08;33.20;;;;;;;21.63;77.72;97028.17;1757235;80;26581;-86
2021/07/17 05:40:23;;;;;;;38.73;31.07;;;;;;;21.64;77.63;97023.77;1742088;80;25325;-85
2021/07/17 05:42:50;;;;;;;40.52;30.30;;;;;;;21.62;77.66;97016.36;1742317;80;27412;-85
2021/07/17 05:45:17;;;;;;;36.58;28.95;;;;;;;21.61;77.65;97009.27;1783981;78;25726;-85
2021/07/17 05:47:44;;;;;;;36.42;28.42;;;;;;;21.65;77.75;97013.05;1774122;78;25757;-85
2021/07/17 05:50:11;;;;;;;39.20;28.55;;;;;;;21.68;77.67;97017.96;1755624;81;25859;-86
2021/07/17 05:52:37;;;;;;;37.35;28.87;;;;;;;21.71;77.62;97017.39;1733844;81;25706;-85
2021/07/17 05:55:05;;;;;;;37.75;28.35;;;;;;;21.75;77.52;97017.05;1776816;78;28328;-84
2021/07/17 05:57:32;;;;;;;36.63;28.32;;;;;;;21.79;77.45;97012.61;1761911;78;25885;-84
2021/07/17 05:59:59;;;;;;;37.00;27.65;;;;;;;21.82;77.40;97006.55;1747825;80;25771;-83
2021/07/17 06:02:27;;;;;;;33.08;28.30;;;;;;;21.86;77.31;97006.75;1780745;79;25786;-85
2021/07/17 06:04:54;;;;;;;36.20;27.00;;;;;;;21.89;77.28;97006.17;1757554;80;25784;-84
2021/07/17 06:07:21;;;;;;;30.85;25.82;;;;;;;21.92;77.35;97002.84;1759493;80;26663;-84
2021/07/17 06:09:47;;;;;;;35.50;27.22;;;;;;;21.90;77.39;97003.69;1755260;80;25959;-83
2021/07/17 06:12:14;;;;;;;37.25;28.52;;;;;;;21.97;77.61;97008.30;1768764;80;25774;-84
2021/07/17 06:14:41;;;;;;;35.95;27.10;;;;;;;22.04;77.56;97007.95;1759337;80;25805;-84
2021/07/17 06:17:11;;;;;;;38.48;28.05;;;;;;;22.12;77.46;97005.91;1781519;80;25807;-84
2021/07/17 06:19:36;;;;;;;41.05;28.25;;;;;;;22.15;77.25;97010.27;1781437;80;27446;-84
2021/07/17 06:22:03;;;;;;;40.12;28.30;;;;;;;22.21;77.08;97006.91;1781331;80;25731;-84
2021/07/17 06:24:29;;;;;;;39.30;27.10;;;;;;;22.25;77.02;97010.69;1781762;80;25756;-83
2021/07/17 06:26:56;;;;;;;35.20;26.57;;;;;;;22.27;76.87;97009.84;1781590;80;25894;-83
2021/07/17 06:29:23;;;;;;;29.52;24.65;;;;;;;22.33;76.52;97018.30;1781767;80;25773;-84
2021/07/17 06:31:49;;;;;;;30.68;24.27;;;;;;;22.33;76.52;97018.30;1781709;80;28389;-84
2021/07/17 06:34:16;;;;;;;27.13;23.45;;;;;;;22.38;76.82;97021.52;1743359;80;25951;-83
2021/07/17 06:36:42;;;;;;;32.50;24.07;;;;;;;22.39;76.51;97022.59;1757906;79;25675;-84
2021/07/17 06:39:09;;;;;;;30.48;24.15;;;;;;;22.34;76.55;97025.41;1750409;80;25908;-83
2021/07/17 06:41:36;;;;;;;32.90;23.77;;;;;;;22.35;76.50;97025.66;1770006;80;25750;-83
2021/07/17 06:44:03;;;;;;;33.85;26.17;;;;;;;22.37;76.42;97035.00;1771846;80;27589;-83
2021/07/17 06:46:29;;;;;;;30.25;24.05;;;;;;;22.33;76.46;97032.60;1781615;80;25654;-84
2021/07/17 06:48:56;;;;;;;30.12;22.32;;;;;;;22.38;76.61;97041.58;1765312;80;25823;-84
2021/07/17 06:51:23;;;;;;;28.83;21.30;;;;;;;22.44;76.43;97047.29;1760013;80;25972;-83
2021/07/17 06:53:50;;;;;;;24.47;21.35;;;;;;;22.47;76.51;97048.05;1784617;80;25929;-84
2021/07/17 06:56:17;;;;;;;25.27;19.73;;;;;;;22.47;76.51;97048.05;1780869;80;27364;-84
2021/07/17 06:58:44;;;;;;;27.32;19.37;;;;;;;22.52;76.18;97048.55;1753518;80;25743;-84
2021/07/17 07:01:10;;;;;;;25.55;19.75;;;;;;;22.54;75.90;97055.39;1776364;79;25760;-84
2021/07/17 07:03:37;;;;;;;22.65;18.92;;;;;;;22.53;75.75;97052.37;1767453;80;25690;-84
2021/07/17 07:06:04;;;;;;;22.50;19.98;;;;;;;22.57;76.12;97058.94;1771236;80;25726;-84
2021/07/17 07:08:32;;;;;;;23.70;20.17;;;;;;;22.57;76.12;97058.94;1753616;80;27381;-84
2021/07/17 07:10:58;;;;;;;23.32;18.62;;;;;;;22.59;75.56;97054.48;1772378;80;25904;-84
2021/07/17 07:13:25;;;;;;;23.98;18.77;;;;;;;22.60;75.40;97063.82;1784669;80;25754;-85
2021/07/17 07:15:52;;;;;;;25.43;19.85;;;;;;;22.62;75.31;97058.03;1784536;80;25744;-84
2021/07/17 07:18:18;;;;;;;25.62;19.25;;;;;;;22.64;75.32;97055.80;1780381;79;26309;-83
2021/07/17 07:20:46;;;;;;;28.17;20.10;;;;;;;22.66;75.11;97056.88;1741049;80;47626;-83
2021/07/17 07:23:13;;;;;;;22.40;19.57;;;;;;;22.61;75.20;97053.08;1762422;80;25742;-83
2021/07/17 07:25:41;;;;;;;23.15;18.52;;;;;;;22.60;75.24;97053.38;1773045;80;25252;-83
2021/07/17 07:28:07;;;;;;;21.30;17.67;;;;;;;22.60;75.23;97052.81;1774586;80;26490;-84
2021/07/17 07:30:34;;;;;;;23.57;19.15;;;;;;;22.63;75.17;97055.54;1775847;80;25746;-83
2021/07/17 07:33:01;;;;;;;35.52;18.25;;;;;;;22.67;75.15;97051.64;1753464;80;27189;-83
2021/07/17 07:35:28;;;;;;;25.80;19.02;;;;;;;22.66;75.12;97048.63;1781708;80;25736;-84
2021/07/17 07:37:55;;;;;;;25.55;18.45;;;;;;;22.67;75.15;97050.27;1768763;80;26490;-84
2021/07/17 07:40:24;;;;;;;31.05;17.92;;;;;;;22.67;75.06;97056.59;1775308;80;25835;-84
2021/07/17 07:42:51;;;;;;;25.65;17.62;;;;;;;22.56;74.98;97033.92;1767095;80;25713;-84
2021/07/17 07:45:19;;;;;;;26.85;18.35;;;;;;;22.66;74.73;97056.88;1784495;80;27590;-84
2021/07/17 07:47:46;;;;;;;22.98;19.00;;;;;;;22.66;74.73;97056.88;1783640;79;25679;-84
2021/07/17 07:50:13;;;;;;;21.93;19.05;;;;;;;22.66;74.93;97056.33;1751380;80;25756;-83
2021/07/17 07:52:40;;;;;;;22.45;18.82;;;;;;;22.68;74.99;97061.53;1768476;80;25809;-84
2021/07/17 07:55:09;;;;;;;21.25;18.98;;;;;;;22.75;74.90;97060.59;1763162;80;25829;-84
2021/07/17 07:57:36;;;;;;;23.35;18.62;;;;;;;22.83;74.96;97058.56;1750241;80;28164;-84
2021/07/17 08:00:07;;;;;;;23.77;17.60;;;;;;;22.91;74.89;97063.42;1781483;80;25650;-85
2021/07/17 08:02:33;;;;;;;24.70;18.80;;;;;;;22.96;74.81;97057.81;1772786;80;25762;-85
2021/07/17 08:05:00;;;;;;;24.20;19.17;;;;;;;23.01;74.55;97059.13;1770103;80;26257;-85
2021/07/17 08:07:26;;;;;;;26.07;19.30;;;;;;;23.09;74.39;97059.00;1737284;80;26407;-85
2021/07/17 08:09:53;;;;;;;24.95;18.75;;;;;;;23.09;74.39;97059.00;1768543;80;27368;-84
2021/07/17 08:12:20;;;;;;;21.12;18.57;;;;;;;23.08;74.21;97064.23;1758311;80;26371;-84
2021/07/17 08:14:47;;;;;;;23.12;18.98;;;;;;;23.08;74.21;97064.23;1777813;80;25748;-85
2021/07/17 08:17:13;;;;;;;23.27;19.02;;;;;;;23.04;74.33;97073.67;1754602;80;25899;-84
2021/07/17 08:19:40;;;;;;;22.30;19.90;;;;;;;22.96;74.38;97072.95;1781432;80;25796;-83
2021/07/17 08:22:06;;;;;;;24.45;18.55;;;;;;;22.86;73.94;97081.37;1780413;79;27385;-84
2021/07/17 08:24:33;;;;;;;21.57;16.67;;;;;;;22.83;74.29;97080.58;1781387;80;25804;-84
2021/07/17 08:27:00;;;;;;;27.70;17.32;;;;;;;22.83;74.29;97080.58;1781642;80;25252;-84
2021/07/17 08:29:26;;;;;;;25.12;17.95;;;;;;;22.86;74.44;97077.24;1781342;80;25832;-83
2021/07/17 08:31:53;;;;;;;23.55;17.90;;;;;;;22.92;74.35;97081.57;1781665;80;26343;-84
2021/07/17 08:34:20;;;;;;;24.12;17.90;;;;;;;22.88;74.56;97056.58;1781378;80;28800;-84
2021/07/17 08:36:46;;;;;;;19.67;16.73;;;;;;;22.88;74.56;97056.58;1781502;80;25750;-84
2021/07/17 08:39:13;;;;;;;24.43;17.00;;;;;;;23.05;74.06;97075.88;1781160;80;25719;-84
2021/07/17 08:41:44;;;;;;;21.62;17.02;;;;;;;22.93;73.98;97082.66;1781191;80;25794;-84
2021/07/17 08:44:12;;;;;;;19.35;17.30;;;;;;;22.91;74.10;97079.94;1781779;80;25644;-85
2021/07/17 08:46:40;;;;;;;27.10;17.95;;;;;;;22.92;74.19;97076.89;1781489;80;26835;-86
2021/07/17 08:49:07;;;;;;;22.87;17.42;;;;;;;22.96;74.40;97077.09;1783431;79;25770;-83
2021/07/17 08:51:34;;;;;;;22.07;16.87;;;;;;;23.05;74.27;97073.12;1784527;80;25326;-84
2021/07/17 08:54:00;;;;;;;22.35;16.27;;;;;;;23.12;74.17;97077.67;1784622;80;26483;-84
2021/07/17 08:56:29;;;;;;;26.12;17.50;;;;;;;23.22;74.14;97051.34;1784381;80;26422;-84
2021/07/17 08:58:56;;;;;;;23.75;18.30;;;;;;;23.22;74.14;97051.34;1784579;80;27370;-85
2021/07/17 09:01:23;;;;;;;23.25;17.25;;;;;;;23.45;73.56;97073.80;1784235;80;25406;-87
2021/07/17 09:03:50;;;;;;;21.87;16.70;;;;;;;23.55;73.75;97074.21;1784487;80;25663;-84
2021/07/17 09:06:16;;;;;;;21.80;15.65;;;;;;;23.62;73.50;97078.78;1784730;80;26250;-84
2021/07/17 09:08:43;;;;;;;18.70;15.08;;;;;;;23.67;73.28;97076.73;1784789;80;25208;-84
2021/07/17 09:11:10;;;;;;;18.80;15.30;;;;;;;23.74;73.10;97076.36;1784840;80;27349;-86
2021/07/17 09:13:37;;;;;;;21.25;15.78;;;;;;;23.77;73.04;97073.56;1774393;80;25761;-84
2021/07/17 09:16:12;;;;;;;19.05;14.65;;;;;;;23.86;72.99;97073.11;1753811;80;25694;-84
2021/07/17 09:18:54;;;;;;;21.30;15.85;;;;;;;23.94;72.82;97070.45;1784653;80;25759;-85
2021/07/17 09:21:29;;;;;;;18.20;14.15;;;;;;;24.07;72.84;97074.34;1784415;79;25756;-84
2021/07/17 09:24:03;;;;;;;18.20;14.80;;;;;;;24.20;72.84;97074.91;1765253;80;28224;-84
2021/07/17 09:26:35;;;;;;;18.90;14.68;;;;;;;24.26;72.14;97066.02;1784539;79;25735;-83
2021/07/17 09:29:09;;;;;;;17.55;13.60;;;;;;;24.27;72.04;97062.13;1784720;80;25742;-86
2021/07/17 09:31:50;;;;;;;16.82;13.53;;;;;;;24.33;72.11;97063.64;1784476;80;25769;-84
2021/07/17 09:34:20;;;;;;;18.10;14.05;;;;;;;24.33;71.76;97060.89;1765390;80;26007;-85
2021/07/17 09:37:11;;;;;;;16.23;13.60;;;;;;;24.36;71.82;97055.58;1776172;80;27353;-87
2021/07/17 09:39:43;;;;;;;16.52;12.88;;;;;;;24.40;71.74;97055.20;1763132;80;25800;-84
2021/07/17 09:42:19;;;;;;;18.50;14.47;;;;;;;24.44;71.71;97054.02;1776829;80;25749;-84
2021/07/17 09:44:51;;;;;;;17.90;13.95;;;;;;;24.50;71.86;97061.64;1784786;80;25703;-85
2021/07/17 09:47:26;;;;;;;17.77;13.98;;;;;;;24.57;71.69;97061.47;1784738;80;25658;-85
2021/07/17 09:50:15;;;;;;;18.02;13.90;;;;;;;24.61;70.98;97059.73;1753427;80;27372;-84
2021/07/17 09:52:46;;;;;;;16.73;14.25;;;;;;;24.72;71.06;97058.37;1781016;79;25689;-84
2021/07/17 09:55:16;;;;;;;17.35;13.98;;;;;;;24.86;71.04;97065.24;1781762;80;25292;-85
2021/07/17 09:57:43;;;;;;;16.48;13.72;;;;;;;24.98;70.84;97059.20;1773861;80;25825;-84
2021/07/17 10:00:14;;;;;;;23.38;14.28;;;;;;;25.10;70.77;97056.13;1781549;80;25750;-85
2021/07/17 10:02:41;;;;;;;16.52;14.00;;;;;;;25.24;70.51;97054.66;1781441;80;27371;-86
2021/07/17 10:05:12;;;;;;;15.93;11.95;;;;;;;25.40;70.46;97058.69;1781121;80;26052;-86
2021/07/17 10:07:39;;;;;;;17.55;12.50;;;;;;;25.55;70.13;97055.28;1781670;80;25806;-84
2021/07/17 10:10:06;;;;;;;16.15;12.78;;;;;;;25.68;69.58;97056.63;1772829;80;25707;-83
2021/07/17 10:12:39;;;;;;;14.70;11.97;;;;;;;25.72;69.16;97056.81;1750033;80;25691;-84
2021/07/17 10:15:10;;;;;;;16.07;11.45;;;;;;;25.66;68.92;97058.87;1768559;80;27383;-83
2021/07/17 10:17:41;;;;;;;14.35;12.82;;;;;;;25.65;68.59;97055.05;1759447;80;25786;-85
2021/07/17 10:20:12;;;;;;;19.55;12.23;;;;;;;25.63;68.17;97054.54;1781461;79;25717;-83
2021/07/17 10:22:39;;;;;;;14.23;11.93;;;;;;;25.57;67.85;97053.03;1781602;80;26373;-85
2021/07/17 10:25:09;;;;;;;17.77;12.58;;;;;;;25.62;67.87;97054.29;1781528;80;25691;-84
2021/07/17 10:27:36;;;;;;;15.88;12.88;;;;;;;25.65;67.86;97053.66;1763174;79;27402;-82
2021/07/17 10:30:10;;;;;;;23.15;12.25;;;;;;;25.69;67.84;97047.20;1770507;80;25742;-84
2021/07/17 10:32:37;;;;;;;19.05;13.10;;;;;;;25.70;67.78;97045.25;1781515;80;25706;-82
2021/07/17 10:35:05;;;;;;;14.87;12.18;;;;;;;25.67;67.90;97037.58;1750575;80;26247;-83
2021/07/17 10:37:34;;;;;;;20.37;12.45;;;;;;;25.68;67.77;97034.51;1781554;80;25790;-85
2021/07/17 10:40:08;;;;;;;14.05;12.53;;;;;;;25.74;68.04;97035.17;1774766;80;27408;-84
2021/07/17 10:42:37;;;;;;;14.78;11.50;;;;;;;25.81;67.74;97038.31;1765404;79;25692;-82
2021/07/17 10:45:05;;;;;;;17.05;11.97;;;;;;;25.92;67.64;97038.28;1776131;78;25794;-85
2021/07/17 10:47:40;;;;;;;17.77;12.53;;;;;;;26.16;67.64;97039.26;1775946;80;25829;-83
2021/07/17 10:50:13;;;;;;;11.97;10.72;;;;;;;26.34;66.99;97038.75;1789888;78;25760;-84
2021/07/17 10:52:44;;;;;;;15.65;12.23;;;;;;;26.50;66.73;97032.45;1757055;80;28172;-88
2021/07/17 10:55:30;;;;;;;15.17;12.67;;;;;;;26.66;66.52;97028.66;1791499;80;25820;-82
2021/07/17 10:58:01;;;;;;;17.12;11.50;;;;;;;26.84;66.13;97029.47;1752174;80;25743;-86
2021/07/17 11:00:49;;;;;;;14.85;11.53;;;;;;;26.88;65.63;97024.35;1769374;80;25630;-82
2021/07/17 11:03:29;;;;;;;13.98;12.45;;;;;;;26.88;65.39;97018.00;1773087;80;25659;-86
2021/07/17 11:05:57;;;;;;;16.10;12.23;;;;;;;26.97;65.42;97013.86;1772952;80;27218;-83
2021/07/17 11:08:30;;;;;;;13.78;12.37;;;;;;;27.05;65.59;97014.45;1759955;80;25296;-84
2021/07/17 11:10:58;;;;;;;16.00;12.47;;;;;;;27.08;65.39;97009.62;1765954;80;25779;-88
2021/07/17 11:13:35;;;;;;;16.95;11.73;;;;;;;27.01;65.39;97010.70;1761325;80;25702;-86
2021/07/17 11:16:04;;;;;;;17.27;12.18;;;;;;;27.06;65.51;97014.67;1785728;78;26556;-88
2021/07/17 11:18:35;;;;;;;19.48;12.28;;;;;;;27.15;65.37;97015.50;1761604;80;27710;-86
2021/07/17 11:21:05;;;;;;;19.07;17.07;;;;;;;27.22;65.30;97009.69;1792570;78;25823;-85